METAR Data
IDs: Format: Raw Decoded Include TAF

Data at: 2350 UTC 24 Apr 2019

PAPO 242334Z AUTO 20012KT 10SM OVC005 M02/M04 A3017 RMK AO2 FZRANO
PAPO 242256Z AUTO 21012KT 10SM OVC003 M03/M05 A3017 RMK AO2 SLP214 T10281050 FZRANO
PAPO 242156Z AUTO 21011KT 10SM OVC003 M02/M04 A3015 RMK AO2 SLP209 T10221044 FZRANO
PAPO 242131Z AUTO 20012KT 10SM BKN003 BKN009 M02/M04 A3014 RMK AO2 CIG 003V007 FZRANO
PAPO 242056Z AUTO 21010KT 10SM OVC007 M01/M03 A3013 RMK AO2 CIG 006V010 SLP203 T10061028 53015 FZRANO
PAPO 242037Z AUTO 18009KT 10SM BKN007 BKN075 M01/M03 A3013 RMK AO2 FZRANO
PAPO 242025Z AUTO 18012KT 10SM SCT007 BKN075 M01/M03 A3012 RMK AO2 FZRANO
PAPO 241956Z AUTO 18010KT 10SM BKN075 M01/M03 A3012 RMK AO2 SLP197 T10111028 FZRANO
PAPO 241856Z AUTO 16008KT 10SM OVC070 M03/M04 A3010 RMK AO2 SLP192 T10281039 FZRANO
PAPO 241756Z AUTO 10007KT 10SM OVC070 M08/M11 A3009 RMK AO2 SLP188 T10781106 11078 21117 51010 FZRANO
PAPO 241656Z AUTO 10007KT 10SM CLR M11/M13 A3008 RMK AO2 SLP185 T11061133 FZRANO
PAPO 241556Z AUTO 09006KT 10SM CLR M11/M14 A3007 RMK AO2 SLP183 T11111139 FZRANO
PAPO 241456Z AUTO 11010KT 10SM CLR M11/M13 A3006 RMK AO2 SLP178 T11111133 53012 FZRANO
PAPO 241356Z AUTO 11008KT 10SM CLR M12/M14 A3004 RMK AO2 SLP173 T11171139 FZRANO
PAPO 241256Z AUTO 08006KT 10SM BKN065 M10/M13 A3003 RMK AO2 SLP170 T11001128 FZRANO
PAPO 241156Z AUTO 07006KT 10SM OVC060 M10/M13 A3002 RMK AO2 SLP166 T11001128 11056 21100 51009 FZRANO
PAPO 241056Z AUTO 07005KT 10SM OVC060 M09/M12 A3002 RMK AO2 SLP166 T10941117 FZRANO
PAPO 240956Z AUTO 07007KT 10SM OVC060 M08/M12 A3001 RMK AO2 SLP161 T10831117 FZRANO
PAPO 240856Z AUTO 06011KT 10SM OVC065 M08/M11 A3000 RMK AO2 SLP157 T10831111 410281089 51015 FZRANO
PAPO 240756Z AUTO 07009KT 10SM CLR M08/M11 A2999 RMK AO2 SLP154 T10781106 FZRANO
PAPO 240656Z AUTO 07013KT 10SM CLR M07/M09 A2996 RMK AO2 SLP146 T10671094 FZRANO
PAPO 240456Z AUTO 08016KT 10SM CLR M04/M08 A2994 RMK AO2 SLP137 T10441083 FZRANO
PAPO 240356Z AUTO 07017KT 10SM CLR M04/M08 A2993 RMK AO2 SLP134 T10391078 FZRANO
PAPO 240256Z AUTO 07015KT 10SM CLR M03/M07 A2992 RMK AO2 SLP132 T10331067 53013 FZRANO
PAPO 240156Z AUTO 07018KT 10SM BKN070 M03/M07 A2990 RMK AO2 SLP125 T10281067 FZRANO
PAPO 240056Z AUTO 07019KT 10SM CLR M03/M07 A2989 RMK AO2 PK WND 07027/0031 SLP121 T10331067 FZRANO
PAPO 232356Z AUTO 07022G27KT 10SM CLR M03/M06 A2988 RMK AO2 PK WND 07027/2347 SLP119 T10281061 11028 21078 53010 FZRANO
PAPO 232256Z AUTO 07022KT 10SM CLR M03/M07 A2987 RMK AO2 PK WND 07027/2245 SLP115 T10331067 FZRANO
PAPO 232156Z AUTO 05012KT 10SM CLR M04/M07 A2986 RMK AO2 SLP113 T10441072 FZRANO
PAPO 232056Z AUTO 06018KT 10SM CLR M05/M08 A2985 RMK AO2 PK WND 07026/2044 SLP108 T10501078 53009 FZRANO
PAPO 231956Z AUTO 06016KT 10SM CLR M06/M09 A2984 RMK AO2 PK WND 07029/1918 SLP105 T10611089 FZRANO
PAPO 231856Z AUTO 06016G21KT 10SM CLR M07/M10 A2983 RMK AO2 PK WND 05031/1801 SLP101 T10671100 FZRANO
PAPO 231756Z AUTO 05021G29KT 10SM CLR M08/M11 A2982 RMK AO2 PK WND 06029/1753 SLP099 60000 T10781106 11061 21089 50015 FZRANO
PAPO 231656Z AUTO 05017G28KT 10SM CLR M08/M12 A2983 RMK AO2 PK WND 05034/1609 SLP100 T10831117 FZRANO
PAPO 231556Z AUTO 05018G31KT 10SM CLR M08/M12 A2983 RMK AO2 PK WND 05033/1518 SLP100 T10831117 FZRANO
PAPO 231456Z AUTO 04031G40KT 10SM FEW015 M08/M11 A2978 RMK AO2 PK WND 05040/1451 SNE1357 SLP084 60000 T10831111 55007 FZRANO
PAPO 231356Z AUTO 05030G43KT 9SM -SN CLR M07/M09 A2976 RMK AO2 PK WND 05050/1304 SLP076 P0000 T10671089 FZRANO
PAPO 231256Z AUTO 05042G48KT 6SM -SN SCT017 M07/M09 A2974 RMK AO2 PK WND 06048/1254 SNB09 SLP071 P0000 T10671094 FZRANO
PAPO 231156Z AUTO 02015G31KT 7SM OVC017 M06/M09 A2980 RMK AO2 PK WND 03038/1101 SNE54 SLP091 P0000 60000 T10611089 11056 21078 55010 FZRANO